sensor_id;sensor_type;location;lat;lon;timestamp;pressure;altitude;pressure_sealevel;temperature;humidity
47220;BME280;32961;51.936;4.788;2023-02-13T00:00:52;103730.84;;;6.70;87.28
47220;BME280;32961;51.936;4.788;2023-02-13T00:03:22;103737.19;;;6.69;87.54
47220;BME280;32961;51.936;4.788;2023-02-13T00:05:50;103731.84;;;6.67;87.36
47220;BME280;32961;51.936;4.788;2023-02-13T00:08:18;103732.75;;;6.66;87.11
47220;BME280;32961;51.936;4.788;2023-02-13T00:10:46;103728.22;;;6.68;87.47
47220;BME280;32961;51.936;4.788;2023-02-13T00:13:14;103732.72;;;6.68;87.94
47220;BME280;32961;51.936;4.788;2023-02-13T00:15:41;103733.63;;;6.67;87.73
47220;BME280;32961;51.936;4.788;2023-02-13T00:18:09;103730.06;;;6.66;87.20
47220;BME280;32961;51.936;4.788;2023-02-13T00:20:39;103723.75;;;6.66;87.50
47220;BME280;32961;51.936;4.788;2023-02-13T00:23:06;103728.28;;;6.65;87.35
47220;BME280;32961;51.936;4.788;2023-02-13T00:25:34;103733.69;;;6.65;87.49
47220;BME280;32961;51.936;4.788;2023-02-13T00:28:02;103729.16;;;6.66;87.40
47220;BME280;32961;51.936;4.788;2023-02-13T00:30:30;103723.88;;;6.63;87.91
47220;BME280;32961;51.936;4.788;2023-02-13T00:32:57;103727.44;;;6.63;88.11
47220;BME280;32961;51.936;4.788;2023-02-13T00:35:25;103723.88;;;6.63;87.82
47220;BME280;32961;51.936;4.788;2023-02-13T00:37:54;103724.72;;;6.65;87.72
47220;BME280;32961;51.936;4.788;2023-02-13T00:40:22;103716.59;;;6.65;87.18
47220;BME280;32961;51.936;4.788;2023-02-13T00:42:50;103723.88;;;6.63;87.57
47220;BME280;32961;51.936;4.788;2023-02-13T00:45:18;103711.34;;;6.60;87.47
47220;BME280;32961;51.936;4.788;2023-02-13T00:47:45;103719.53;;;6.57;87.33
47220;BME280;32961;51.936;4.788;2023-02-13T00:50:13;103716.75;;;6.60;87.26
47220;BME280;32961;51.936;4.788;2023-02-13T00:52:41;103723.03;;;6.61;87.65
47220;BME280;32961;51.936;4.788;2023-02-13T00:55:10;103718.53;;;6.59;87.71
47220;BME280;32961;51.936;4.788;2023-02-13T00:57:38;103711.28;;;6.62;87.64
47220;BME280;32961;51.936;4.788;2023-02-13T01:00:08;103710.41;;;6.61;87.50
47220;BME280;32961;51.936;4.788;2023-02-13T01:02:36;103707.66;;;6.63;88.56
47220;BME280;32961;51.936;4.788;2023-02-13T01:05:04;103711.22;;;6.65;87.98
47220;BME280;32961;51.936;4.788;2023-02-13T01:07:32;103702.13;;;6.66;87.46
47220;BME280;32961;51.936;4.788;2023-02-13T01:09:59;103707.66;;;6.63;87.60
47220;BME280;32961;51.936;4.788;2023-02-13T01:12:29;103709.38;;;6.65;87.97
47220;BME280;32961;51.936;4.788;2023-02-13T01:14:56;103705.00;;;6.61;87.87
47220;BME280;32961;51.936;4.788;2023-02-13T01:17:24;103706.78;;;6.62;87.63
47220;BME280;32961;51.936;4.788;2023-02-13T01:19:52;103702.19;;;6.64;87.59
47220;BME280;32961;51.936;4.788;2023-02-13T01:22:20;103704.03;;;6.64;88.01
47220;BME280;32961;51.936;4.788;2023-02-13T01:24:48;103702.19;;;6.64;88.33
47220;BME280;32961;51.936;4.788;2023-02-13T01:27:16;103695.81;;;6.67;87.81
47220;BME280;32961;51.936;4.788;2023-02-13T01:29:45;103703.91;;;6.67;88.51
47220;BME280;32961;51.936;4.788;2023-02-13T01:32:13;103699.44;;;6.66;88.04
47220;BME280;32961;51.936;4.788;2023-02-13T01:34:41;103700.34;;;6.66;88.21
47220;BME280;32961;51.936;4.788;2023-02-13T01:37:08;103693.09;;;6.67;88.30
47220;BME280;32961;51.936;4.788;2023-02-13T01:39:36;103699.41;;;6.67;87.53
47220;BME280;32961;51.936;4.788;2023-02-13T01:42:04;103694.03;;;6.66;88.48
47220;BME280;32961;51.936;4.788;2023-02-13T01:44:49;103689.66;;;6.62;87.71
47220;BME280;32961;51.936;4.788;2023-02-13T01:47:23;103689.66;;;6.62;88.59
47220;BME280;32961;51.936;4.788;2023-02-13T01:50:00;103694.16;;;6.63;87.73
47220;BME280;32961;51.936;4.788;2023-02-13T01:52:30;103683.28;;;6.64;88.38
47220;BME280;32961;51.936;4.788;2023-02-13T01:54:58;103694.22;;;6.59;89.03
47220;BME280;32961;51.936;4.788;2023-02-13T01:57:27;103692.44;;;6.60;88.20
47220;BME280;32961;51.936;4.788;2023-02-13T02:00:01;103689.66;;;6.62;88.37
47220;BME280;32961;51.936;4.788;2023-02-13T02:02:32;103693.31;;;6.61;88.12
47220;BME280;32961;51.936;4.788;2023-02-13T02:05:01;103693.22;;;6.64;88.01
47220;BME280;32961;51.936;4.788;2023-02-13T02:07:30;103694.22;;;6.61;88.56
47220;BME280;32961;51.936;4.788;2023-02-13T02:10:02;103692.50;;;6.58;87.63
47220;BME280;32961;51.936;4.788;2023-02-13T02:12:35;103694.28;;;6.58;88.89
47220;BME280;32961;51.936;4.788;2023-02-13T02:15:07;103691.59;;;6.58;88.85
47220;BME280;32961;51.936;4.788;2023-02-13T02:17:35;103696.91;;;6.61;88.68
47220;BME280;32961;51.936;4.788;2023-02-13T02:20:13;103697.84;;;6.60;87.78
47220;BME280;32961;51.936;4.788;2023-02-13T02:22:58;103696.94;;;6.59;88.28
47220;BME280;32961;51.936;4.788;2023-02-13T02:25:56;103696.00;;;6.61;88.33
47220;BME280;32961;51.936;4.788;2023-02-13T02:28:57;103687.91;;;6.61;88.08
47220;BME280;32961;51.936;4.788;2023-02-13T02:32:02;103687.91;;;6.61;88.11
47220;BME280;32961;51.936;4.788;2023-02-13T02:34:42;103681.56;;;6.62;88.48
47220;BME280;32961;51.936;4.788;2023-02-13T02:37:25;103684.28;;;6.62;88.18
47220;BME280;32961;51.936;4.788;2023-02-13T02:40:09;103676.22;;;6.60;88.02
47220;BME280;32961;51.936;4.788;2023-02-13T02:42:44;103669.88;;;6.61;88.40
47220;BME280;32961;51.936;4.788;2023-02-13T02:45:22;103666.28;;;6.61;88.38
47220;BME280;32961;51.936;4.788;2023-02-13T02:47:55;103665.41;;;6.60;88.36
47220;BME280;32961;51.936;4.788;2023-02-13T02:50:49;103680.72;;;6.59;88.82
47220;BME280;32961;51.936;4.788;2023-02-13T02:53:27;103677.22;;;6.57;88.14
47220;BME280;32961;51.936;4.788;2023-02-13T02:56:03;103675.44;;;6.56;89.06
47220;BME280;32961;51.936;4.788;2023-02-13T02:58:37;103671.81;;;6.57;89.12
47220;BME280;32961;51.936;4.788;2023-02-13T03:01:35;103663.63;;;6.59;88.86
47220;BME280;32961;51.936;4.788;2023-02-13T03:04:24;103678.03;;;6.59;89.11
47220;BME280;32961;51.936;4.788;2023-02-13T03:07:14;103669.03;;;6.59;88.76
47220;BME280;32961;51.936;4.788;2023-02-13T03:09:45;103674.44;;;6.59;88.96
47220;BME280;32961;51.936;4.788;2023-02-13T03:12:37;103674.44;;;6.59;88.52
47220;BME280;32961;51.936;4.788;2023-02-13T03:15:25;103665.50;;;6.57;89.01
47220;BME280;32961;51.936;4.788;2023-02-13T03:17:54;103661.06;;;6.54;88.55
47220;BME280;32961;51.936;4.788;2023-02-13T03:20:45;103671.94;;;6.53;88.31
47220;BME280;32961;51.936;4.788;2023-02-13T03:23:43;103672.78;;;6.55;89.54
47220;BME280;32961;51.936;4.788;2023-02-13T03:26:31;103668.25;;;6.55;88.95
47220;BME280;32961;51.936;4.788;2023-02-13T03:29:15;103659.28;;;6.55;88.85
47220;BME280;32961;51.936;4.788;2023-02-13T03:32:09;103661.22;;;6.50;88.80
47220;BME280;32961;51.936;4.788;2023-02-13T03:34:44;103663.91;;;6.50;89.58
47220;BME280;32961;51.936;4.788;2023-02-13T03:37:37;103669.28;;;6.51;88.89
47220;BME280;32961;51.936;4.788;2023-02-13T03:40:27;103667.47;;;6.52;89.42
47220;BME280;32961;51.936;4.788;2023-02-13T03:43:03;103670.22;;;6.50;89.41
47220;BME280;32961;51.936;4.788;2023-02-13T03:45:37;103671.09;;;6.51;89.28
47220;BME280;32961;51.936;4.788;2023-02-13T03:48:25;103664.81;;;6.50;89.34
47220;BME280;32961;51.936;4.788;2023-02-13T03:51:14;103662.13;;;6.50;89.77
47220;BME280;32961;51.936;4.788;2023-02-13T03:53:47;103664.88;;;6.49;89.98
47220;BME280;32961;51.936;4.788;2023-02-13T03:56:18;103661.28;;;6.48;89.41
47220;BME280;32961;51.936;4.788;2023-02-13T03:59:06;103663.09;;;6.48;90.01
47220;BME280;32961;51.936;4.788;2023-02-13T04:01:49;103660.44;;;6.46;89.61
47220;BME280;32961;51.936;4.788;2023-02-13T04:04:26;103659.50;;;6.47;90.73
47220;BME280;32961;51.936;4.788;2023-02-13T04:06:57;103651.50;;;6.44;90.42
47220;BME280;32961;51.936;4.788;2023-02-13T04:09:28;103656.00;;;6.43;90.21
47220;BME280;32961;51.936;4.788;2023-02-13T04:12:02;103648.81;;;6.44;90.70
47220;BME280;32961;51.936;4.788;2023-02-13T04:14:35;103652.53;;;6.40;90.91
47220;BME280;32961;51.936;4.788;2023-02-13T04:17:07;103646.25;;;6.39;90.53
47220;BME280;32961;51.936;4.788;2023-02-13T04:19:36;103650.72;;;6.40;91.75
47220;BME280;32961;51.936;4.788;2023-02-13T04:22:04;103647.97;;;6.42;91.44
47220;BME280;32961;51.936;4.788;2023-02-13T04:24:33;103649.81;;;6.40;91.15
47220;BME280;32961;51.936;4.788;2023-02-13T04:27:01;103645.25;;;6.42;91.38
47220;BME280;32961;51.936;4.788;2023-02-13T04:29:29;103641.84;;;6.37;91.29
47220;BME280;32961;51.936;4.788;2023-02-13T04:31:57;103642.75;;;6.36;91.84
47220;BME280;32961;51.936;4.788;2023-02-13T04:34:24;103640.00;;;6.37;91.63
47220;BME280;32961;51.936;4.788;2023-02-13T04:36:52;103648.03;;;6.40;91.98
47220;BME280;32961;51.936;4.788;2023-02-13T04:39:20;103642.56;;;6.42;91.75
47220;BME280;32961;51.936;4.788;2023-02-13T04:41:49;103646.19;;;6.41;92.09
47220;BME280;32961;51.936;4.788;2023-02-13T04:44:17;103648.69;;;6.47;91.49
47220;BME280;32961;51.936;4.788;2023-02-13T04:46:44;103653.28;;;6.45;91.75
47220;BME280;32961;51.936;4.788;2023-02-13T04:49:12;103644.34;;;6.43;92.14
47220;BME280;32961;51.936;4.788;2023-02-13T04:51:40;103650.59;;;6.43;91.76
47220;BME280;32961;51.936;4.788;2023-02-13T04:54:11;103652.31;;;6.46;92.33
47220;BME280;32961;51.936;4.788;2023-02-13T04:56:39;103645.19;;;6.45;92.37
47220;BME280;32961;51.936;4.788;2023-02-13T04:59:08;103638.88;;;6.45;92.20
47220;BME280;32961;51.936;4.788;2023-02-13T05:01:36;103634.47;;;6.42;92.53
47220;BME280;32961;51.936;4.788;2023-02-13T05:04:04;103636.22;;;6.43;92.27
47220;BME280;32961;51.936;4.788;2023-02-13T05:06:31;103633.53;;;6.43;92.14
47220;BME280;32961;51.936;4.788;2023-02-13T05:08:59;103626.28;;;6.45;92.17
47220;BME280;32961;51.936;4.788;2023-02-13T05:11:28;103626.34;;;6.42;92.20
47220;BME280;32961;51.936;4.788;2023-02-13T05:13:56;103626.28;;;6.45;92.43
47220;BME280;32961;51.936;4.788;2023-02-13T05:16:25;103626.28;;;6.45;92.58
47220;BME280;32961;51.936;4.788;2023-02-13T05:18:52;103628.00;;;6.46;91.90
47220;BME280;32961;51.936;4.788;2023-02-13T05:21:20;103623.50;;;6.47;91.53
47220;BME280;32961;51.936;4.788;2023-02-13T05:24:02;103619.91;;;6.46;92.82
47220;BME280;32961;51.936;4.788;2023-02-13T05:26:30;103625.31;;;6.46;93.37
47220;BME280;32961;51.936;4.788;2023-02-13T05:28:58;103621.69;;;6.47;92.83
47220;BME280;32961;51.936;4.788;2023-02-13T05:31:44;103621.66;;;6.49;92.74
47220;BME280;32961;51.936;4.788;2023-02-13T05:34:12;103622.53;;;6.49;92.83
47220;BME280;32961;51.936;4.788;2023-02-13T05:36:40;103618.91;;;6.50;92.89
47220;BME280;32961;51.936;4.788;2023-02-13T05:39:08;103623.47;;;6.48;92.51
47220;BME280;32961;51.936;4.788;2023-02-13T05:41:35;103618.06;;;6.48;92.65
47220;BME280;32961;51.936;4.788;2023-02-13T05:44:03;103619.84;;;6.49;92.75
47220;BME280;32961;51.936;4.788;2023-02-13T05:46:31;103620.81;;;6.47;93.03
47220;BME280;32961;51.936;4.788;2023-02-13T05:49:00;103621.75;;;6.46;92.74
47220;BME280;32961;51.936;4.788;2023-02-13T05:51:30;103627.09;;;6.47;93.29
47220;BME280;32961;51.936;4.788;2023-02-13T05:53:58;103622.59;;;6.48;93.56
47220;BME280;32961;51.936;4.788;2023-02-13T05:56:26;103628.84;;;6.48;93.75
47220;BME280;32961;51.936;4.788;2023-02-13T05:58:54;103631.50;;;6.50;92.96
47220;BME280;32961;51.936;4.788;2023-02-13T06:01:23;103632.41;;;6.50;93.25
47220;BME280;32961;51.936;4.788;2023-02-13T06:03:51;103638.69;;;6.51;92.81
47220;BME280;32961;51.936;4.788;2023-02-13T06:06:20;103633.25;;;6.52;93.90
47220;BME280;32961;51.936;4.788;2023-02-13T06:08:48;103637.81;;;6.50;92.72
47220;BME280;32961;51.936;4.788;2023-02-13T06:11:16;103633.34;;;6.49;94.15
47220;BME280;32961;51.936;4.788;2023-02-13T06:13:44;103640.50;;;6.50;93.30
47220;BME280;32961;51.936;4.788;2023-02-13T06:16:12;103637.81;;;6.50;93.25
47220;BME280;32961;51.936;4.788;2023-02-13T06:18:40;103637.81;;;6.50;94.02
47220;BME280;32961;51.936;4.788;2023-02-13T06:21:08;103634.19;;;6.51;93.68
47220;BME280;32961;51.936;4.788;2023-02-13T06:23:37;103632.41;;;6.50;93.12
47220;BME280;32961;51.936;4.788;2023-02-13T06:26:07;103625.28;;;6.48;93.89
47220;BME280;32961;51.936;4.788;2023-02-13T06:28:35;103628.97;;;6.45;93.51
47220;BME280;32961;51.936;4.788;2023-02-13T06:31:03;103630.78;;;6.45;94.25
47220;BME280;32961;51.936;4.788;2023-02-13T06:33:31;103624.56;;;6.42;93.36
47220;BME280;32961;51.936;4.788;2023-02-13T06:35:59;103629.97;;;6.41;93.67
47220;BME280;32961;51.936;4.788;2023-02-13T06:38:26;103623.84;;;6.36;94.56
47220;BME280;32961;51.936;4.788;2023-02-13T06:40:58;103632.88;;;6.35;93.94
47220;BME280;32961;51.936;4.788;2023-02-13T06:43:27;103629.38;;;6.33;94.45
47220;BME280;32961;51.936;4.788;2023-02-13T06:45:55;103628.53;;;6.31;93.84
47220;BME280;32961;51.936;4.788;2023-02-13T06:48:22;103622.34;;;6.27;93.71
47220;BME280;32961;51.936;4.788;2023-02-13T06:50:50;103624.19;;;6.25;93.79
47220;BME280;32961;51.936;4.788;2023-02-13T06:53:18;103635.03;;;6.23;94.71
47220;BME280;32961;51.936;4.788;2023-02-13T06:55:50;103627.94;;;6.21;94.18
47220;BME280;32961;51.936;4.788;2023-02-13T06:58:22;103642.34;;;6.20;94.45
47220;BME280;32961;51.936;4.788;2023-02-13T07:00:50;103632.59;;;6.16;93.94
47220;BME280;32961;51.936;4.788;2023-02-13T07:03:18;103642.50;;;6.15;94.39
47220;BME280;32961;51.936;4.788;2023-02-13T07:05:46;103648.91;;;6.11;93.46
47220;BME280;32961;51.936;4.788;2023-02-13T07:08:17;103642.72;;;6.07;93.57
47220;BME280;32961;51.936;4.788;2023-02-13T07:10:45;103646.41;;;6.05;94.21
47220;BME280;32961;51.936;4.788;2023-02-13T07:13:13;103640.16;;;6.03;93.82
47220;BME280;32961;51.936;4.788;2023-02-13T07:15:42;103644.75;;;5.99;94.15
47220;BME280;32961;51.936;4.788;2023-02-13T07:18:10;103642.16;;;5.94;93.61
47220;BME280;32961;51.936;4.788;2023-02-13T07:20:38;103653.91;;;5.93;93.61
47220;BME280;32961;51.936;4.788;2023-02-13T07:23:05;103648.53;;;5.93;94.28
47220;BME280;32961;51.936;4.788;2023-02-13T07:25:33;103652.16;;;5.91;93.34
47220;BME280;32961;51.936;4.788;2023-02-13T07:28:02;103654.91;;;5.89;93.78
47220;BME280;32961;51.936;4.788;2023-02-13T07:30:30;103664.84;;;5.89;93.72
47220;BME280;32961;51.936;4.788;2023-02-13T07:33:00;103662.16;;;5.87;94.42
47220;BME280;32961;51.936;4.788;2023-02-13T07:35:28;103663.13;;;5.86;94.25
47220;BME280;32961;51.936;4.788;2023-02-13T07:38:02;103658.69;;;5.84;93.97
47220;BME280;32961;51.936;4.788;2023-02-13T07:40:30;103656.00;;;5.84;94.29
47220;BME280;32961;51.936;4.788;2023-02-13T07:42:59;103656.06;;;5.81;94.22
47220;BME280;32961;51.936;4.788;2023-02-13T07:45:27;103657.00;;;5.79;94.40
47220;BME280;32961;51.936;4.788;2023-02-13T07:47:55;103658.81;;;5.79;94.51
47220;BME280;32961;51.936;4.788;2023-02-13T07:50:25;103662.44;;;5.78;93.73
47220;BME280;32961;51.936;4.788;2023-02-13T07:52:53;103668.72;;;5.78;95.58
47220;BME280;32961;51.936;4.788;2023-02-13T07:55:21;103672.38;;;5.76;94.48
47220;BME280;32961;51.936;4.788;2023-02-13T07:57:49;103674.16;;;5.77;94.72
47220;BME280;32961;51.936;4.788;2023-02-13T08:00:18;103678.69;;;5.76;94.99
47220;BME280;32961;51.936;4.788;2023-02-13T08:02:47;103680.47;;;5.76;95.82
47220;BME280;32961;51.936;4.788;2023-02-13T08:05:15;103677.78;;;5.76;95.56
47220;BME280;32961;51.936;4.788;2023-02-13T08:07:44;103674.16;;;5.77;95.87
47220;BME280;32961;51.936;4.788;2023-02-13T08:10:12;103678.63;;;5.78;95.20
47220;BME280;32961;51.936;4.788;2023-02-13T08:12:58;103674.22;;;5.75;95.67
47220;BME280;32961;51.936;4.788;2023-02-13T08:15:26;103688.53;;;5.77;96.55
47220;BME280;32961;51.936;4.788;2023-02-13T08:17:54;103691.22;;;5.77;96.75
47220;BME280;32961;51.936;4.788;2023-02-13T08:20:22;103687.59;;;5.78;96.40
47220;BME280;32961;51.936;4.788;2023-02-13T08:22:51;103688.50;;;5.79;97.39
47220;BME280;32961;51.936;4.788;2023-02-13T08:25:19;103683.00;;;5.82;96.72
47220;BME280;32961;51.936;4.788;2023-02-13T08:27:47;103681.22;;;5.81;97.03
47220;BME280;32961;51.936;4.788;2023-02-13T08:30:15;103687.41;;;5.85;96.97
47220;BME280;32961;51.936;4.788;2023-02-13T08:32:43;103688.28;;;5.87;97.18
47220;BME280;32961;51.936;4.788;2023-02-13T08:35:20;103690.91;;;5.90;98.56
47220;BME280;32961;51.936;4.788;2023-02-13T08:37:48;103683.59;;;5.93;98.38
47220;BME280;32961;51.936;4.788;2023-02-13T08:40:17;103691.69;;;5.93;98.29
47220;BME280;32961;51.936;4.788;2023-02-13T08:42:45;103687.13;;;5.95;98.77
47220;BME280;32961;51.936;4.788;2023-02-13T08:45:13;103687.03;;;6.00;99.32
47220;BME280;32961;51.936;4.788;2023-02-13T08:47:40;103689.66;;;6.03;98.34
47220;BME280;32961;51.936;4.788;2023-02-13T08:50:09;103692.19;;;6.08;99.42
47220;BME280;32961;51.936;4.788;2023-02-13T08:52:37;103694.75;;;6.13;99.57
47220;BME280;32961;51.936;4.788;2023-02-13T08:55:05;103690.09;;;6.18;99.46
47220;BME280;32961;51.936;4.788;2023-02-13T08:57:34;103692.63;;;6.24;98.61
47220;BME280;32961;51.936;4.788;2023-02-13T09:00:03;103688.94;;;6.26;98.40
47220;BME280;32961;51.936;4.788;2023-02-13T09:02:31;103689.78;;;6.29;99.13
47220;BME280;32961;51.936;4.788;2023-02-13T09:04:59;103702.28;;;6.33;98.90
47220;BME280;32961;51.936;4.788;2023-02-13T09:07:27;103685.88;;;6.39;98.96
47220;BME280;32961;51.936;4.788;2023-02-13T09:09:54;103687.63;;;6.40;98.89
47220;BME280;32961;51.936;4.788;2023-02-13T09:12:22;103692.91;;;6.45;97.95
47220;BME280;32961;51.936;4.788;2023-02-13T09:14:51;103691.91;;;6.49;98.46
47220;BME280;32961;51.936;4.788;2023-02-13T09:17:19;103687.16;;;6.55;98.72
47220;BME280;32961;51.936;4.788;2023-02-13T09:19:47;103692.38;;;6.62;98.22
47220;BME280;32961;51.936;4.788;2023-02-13T09:22:14;103693.22;;;6.64;97.47
47220;BME280;32961;51.936;4.788;2023-02-13T09:24:43;103692.13;;;6.69;97.55
47220;BME280;32961;51.936;4.788;2023-02-13T09:27:10;103693.88;;;6.70;97.65
47220;BME280;32961;51.936;4.788;2023-02-13T09:29:38;103696.47;;;6.75;97.97
47220;BME280;32961;51.936;4.788;2023-02-13T09:32:07;103697.19;;;6.80;97.48
47220;BME280;32961;51.936;4.788;2023-02-13T09:34:35;103700.63;;;6.85;97.18
47220;BME280;32961;51.936;4.788;2023-02-13T09:37:03;103698.63;;;6.92;97.03
47220;BME280;32961;51.936;4.788;2023-02-13T09:39:31;103700.25;;;6.96;97.49
47220;BME280;32961;51.936;4.788;2023-02-13T09:41:59;103696.56;;;7.00;96.63
47220;BME280;32961;51.936;4.788;2023-02-13T09:44:30;103704.41;;;7.08;96.52
47220;BME280;32961;51.936;4.788;2023-02-13T09:47:03;103701.41;;;7.16;96.85
47220;BME280;32961;51.936;4.788;2023-02-13T09:49:36;103694.00;;;7.22;96.60
47220;BME280;32961;51.936;4.788;2023-02-13T09:52:07;103700.84;;;7.33;96.33
47220;BME280;32961;51.936;4.788;2023-02-13T09:54:36;103695.16;;;7.41;96.65
47220;BME280;32961;51.936;4.788;2023-02-13T09:57:10;103696.72;;;7.48;96.40
47220;BME280;32961;51.936;4.788;2023-02-13T09:59:50;103688.28;;;7.57;95.89
47220;BME280;32961;51.936;4.788;2023-02-13T10:05:22;103689.38;;;7.77;95.27
47220;BME280;32961;51.936;4.788;2023-02-13T10:08:02;103694.63;;;7.81;95.05
47220;BME280;32961;51.936;4.788;2023-02-13T10:10:37;103686.50;;;7.81;93.71
47220;BME280;32961;51.936;4.788;2023-02-13T10:13:25;103694.41;;;7.87;93.69
47220;BME280;32961;51.936;4.788;2023-02-13T10:16:01;103689.53;;;7.97;93.60
47220;BME280;32961;51.936;4.788;2023-02-13T10:18:40;103683.94;;;8.02;92.98
47220;BME280;32961;51.936;4.788;2023-02-13T10:21:11;103681.81;;;8.10;92.96
47220;BME280;32961;51.936;4.788;2023-02-13T10:23:43;103679.69;;;8.18;93.22
47220;BME280;32961;51.936;4.788;2023-02-13T10:26:17;103680.38;;;8.25;92.52
47220;BME280;32961;51.936;4.788;2023-02-13T10:28:49;103680.13;;;8.31;92.09
47220;BME280;32961;51.936;4.788;2023-02-13T10:31:40;103682.44;;;8.41;92.08
47220;BME280;32961;51.936;4.788;2023-02-13T10:34:13;103684.94;;;8.47;91.40
47220;BME280;32961;51.936;4.788;2023-02-13T10:36:45;103684.84;;;8.50;90.76
47220;BME280;32961;51.936;4.788;2023-02-13T10:39:21;103683.69;;;8.56;90.54
47220;BME280;32961;51.936;4.788;2023-02-13T10:41:52;103673.50;;;8.62;90.59
47220;BME280;32961;51.936;4.788;2023-02-13T10:44:38;103674.00;;;8.72;90.18
47220;BME280;32961;51.936;4.788;2023-02-13T10:47:17;103675.47;;;8.81;89.93
47220;BME280;32961;51.936;4.788;2023-02-13T10:49:56;103677.09;;;8.85;88.86
47220;BME280;32961;51.936;4.788;2023-02-13T10:52:36;103677.72;;;8.92;88.35
47220;BME280;32961;51.936;4.788;2023-02-13T10:55:15;103668.41;;;8.99;88.43
47220;BME280;32961;51.936;4.788;2023-02-13T10:58:02;103670.69;;;9.08;87.84
47220;BME280;32961;51.936;4.788;2023-02-13T11:00:36;103669.41;;;9.17;87.73
47220;BME280;32961;51.936;4.788;2023-02-13T11:03:15;103674.38;;;9.28;87.29
47220;BME280;32961;51.936;4.788;2023-02-13T11:05:44;103670.44;;;9.35;86.53
47220;BME280;32961;51.936;4.788;2023-02-13T11:08:17;103664.75;;;9.41;86.63
47220;BME280;32961;51.936;4.788;2023-02-13T11:10:45;103664.56;;;9.46;85.56
47220;BME280;32961;51.936;4.788;2023-02-13T11:13:16;103663.53;;;9.48;85.67
47220;BME280;32961;51.936;4.788;2023-02-13T11:16:01;103660.69;;;9.52;84.77
47220;BME280;32961;51.936;4.788;2023-02-13T11:18:32;103652.41;;;9.55;84.28
47220;BME280;32961;51.936;4.788;2023-02-13T11:21:05;103658.66;;;9.57;84.23
47220;BME280;32961;51.936;4.788;2023-02-13T11:23:39;103650.06;;;9.66;84.67
47220;BME280;32961;51.936;4.788;2023-02-13T11:26:11;103652.38;;;9.75;84.54
47220;BME280;32961;51.936;4.788;2023-02-13T11:28:47;103646.69;;;9.82;83.69
47220;BME280;32961;51.936;4.788;2023-02-13T11:31:27;103645.53;;;9.87;83.38
47220;BME280;32961;51.936;4.788;2023-02-13T11:33:56;103633.41;;;9.94;82.98
47220;BME280;32961;51.936;4.788;2023-02-13T11:36:27;103624.16;;;9.99;82.54
47220;BME280;32961;51.936;4.788;2023-02-13T11:39:03;103625.72;;;10.04;82.09
47220;BME280;32961;51.936;4.788;2023-02-13T11:41:38;103618.31;;;10.08;82.00
47220;BME280;32961;51.936;4.788;2023-02-13T11:44:19;103618.88;;;10.15;81.86
47220;BME280;32961;51.936;4.788;2023-02-13T11:46:50;103618.50;;;10.22;81.43
47220;BME280;32961;51.936;4.788;2023-02-13T11:49:20;103612.03;;;10.25;80.61
47220;BME280;32961;51.936;4.788;2023-02-13T11:51:50;103617.13;;;10.33;80.89
47220;BME280;32961;51.936;4.788;2023-02-13T11:54:29;103613.22;;;10.38;79.30
47220;BME280;32961;51.936;4.788;2023-02-13T11:57:01;103602.44;;;10.37;79.31
47220;BME280;32961;51.936;4.788;2023-02-13T11:59:39;103610.28;;;10.43;80.07
47220;BME280;32961;51.936;4.788;2023-02-13T12:02:16;103607.19;;;10.51;79.48
47220;BME280;32961;51.936;4.788;2023-02-13T12:04:45;103607.91;;;10.54;79.45
47220;BME280;32961;51.936;4.788;2023-02-13T12:07:18;103604.19;;;10.57;78.61
47220;BME280;32961;51.936;4.788;2023-02-13T12:09:52;103609.63;;;10.57;78.24
47220;BME280;32961;51.936;4.788;2023-02-13T12:12:26;103596.91;;;10.57;78.34
47220;BME280;32961;51.936;4.788;2023-02-13T12:14:56;103595.94;;;10.58;78.12
47220;BME280;32961;51.936;4.788;2023-02-13T12:17:26;103601.16;;;10.63;78.18
47220;BME280;32961;51.936;4.788;2023-02-13T12:19:58;103599.88;;;10.70;78.24
47220;BME280;32961;51.936;4.788;2023-02-13T12:22:31;103601.31;;;10.78;77.76
47220;BME280;32961;51.936;4.788;2023-02-13T12:25:24;103596.59;;;10.81;76.82
47220;BME280;32961;51.936;4.788;2023-02-13T12:28:06;103593.66;;;10.86;77.02
47220;BME280;32961;51.936;4.788;2023-02-13T12:31:12;103592.38;;;10.93;76.45
47220;BME280;32961;51.936;4.788;2023-02-13T12:37:01;103589.25;;;11.01;76.55
47220;BME280;32961;51.936;4.788;2023-02-13T12:39:37;103585.34;;;11.06;75.94
47220;BME280;32961;51.936;4.788;2023-02-13T12:42:20;103581.66;;;11.07;75.94
47220;BME280;32961;51.936;4.788;2023-02-13T12:45:11;103581.81;;;11.04;74.58
47220;BME280;32961;51.936;4.788;2023-02-13T12:47:56;103584.53;;;11.04;75.12
47220;BME280;32961;51.936;4.788;2023-02-13T12:50:37;103578.22;;;11.04;74.30
47220;BME280;32961;51.936;4.788;2023-02-13T12:53:21;103580.63;;;11.10;74.97
47220;BME280;32961;51.936;4.788;2023-02-13T12:56:06;103574.94;;;11.15;74.49
47220;BME280;32961;51.936;4.788;2023-02-13T12:58:49;103569.22;;;11.19;74.16
47220;BME280;32961;51.936;4.788;2023-02-13T13:01:35;103569.16;;;11.21;74.07
47220;BME280;32961;51.936;4.788;2023-02-13T13:04:16;103563.78;;;11.19;73.40
47220;BME280;32961;51.936;4.788;2023-02-13T13:06:56;103556.53;;;11.20;73.73
47220;BME280;32961;51.936;4.788;2023-02-13T13:09:47;103545.63;;;11.20;72.96
47220;BME280;32961;51.936;4.788;2023-02-13T13:12:29;103557.63;;;11.16;73.13
47220;BME280;32961;51.936;4.788;2023-02-13T13:15:05;103552.38;;;11.13;72.75
47220;BME280;32961;51.936;4.788;2023-02-13T13:17:45;103560.53;;;11.13;72.76
47220;BME280;32961;51.936;4.788;2023-02-13T13:20:35;103559.81;;;11.09;72.74
47220;BME280;32961;51.936;4.788;2023-02-13T13:23:09;103557.94;;;11.10;72.74
47220;BME280;32961;51.936;4.788;2023-02-13T13:25:44;103559.56;;;11.14;73.04
47220;BME280;32961;51.936;4.788;2023-02-13T13:28:16;103553.09;;;11.16;73.15
47220;BME280;32961;51.936;4.788;2023-02-13T13:30:47;103547.44;;;11.19;72.53
47220;BME280;32961;51.936;4.788;2023-02-13T13:33:18;103547.53;;;11.18;72.07
47220;BME280;32961;51.936;4.788;2023-02-13T13:35:53;103536.91;;;11.13;71.23